Time;durP1;ratioP1;P1;durP2;ratioP2;P2;SDS_P1;SDS_P2;PMS_P1;PMS_P2;Temp;Humidity;BMP_temperature;BMP_pressure;BME280_temperature;BME280_humidity;BME280_pressure;Samples;Min_cycle;Max_cycle;Signal;HPM_P1;HPM_P2
2022/01/15 00:00:25;;;;;;;9.30;2.60;;;;;;100981.11;;;;106347;1299;62807;-36
2022/01/15 00:03:10;;;;;;;6.70;2.50;;;;;;100976.41;;;;106483;1299;65980;-37
2022/01/15 00:05:37;;;;;;;5.30;2.00;;;;;;100974.02;;;;106458;1299;62617;-38
2022/01/15 00:08:08;;;;;;;7.60;2.60;;;;;;100975.42;;;;106433;1300;62606;-45
2022/01/15 00:10:36;;;;;;;6.30;2.30;;;;;;100978.07;;;;106425;1300;62661;-49
2022/01/15 00:13:03;;;;;;;6.50;2.00;;;;;;100978.39;;;;106505;1300;62565;-47
2022/01/15 00:15:35;;;;;;;6.40;2.00;;;;;;100981.66;;;;106448;1298;66008;-45
2022/01/15 00:18:11;;;;;;;6.30;2.20;;;;;;100982.55;;;;106472;1299;62676;-45
2022/01/15 00:20:38;;;;;;;6.90;2.60;;;;;;100977.00;;;;106467;1299;62637;-45
2022/01/15 00:23:06;;;;;;;5.20;2.30;;;;;;100986.17;;;;106487;1298;62648;-47
2022/01/15 00:25:34;;;;;;;5.90;2.00;;;;;;100980.04;;;;106489;1298;62551;-48
2022/01/15 00:28:04;;;;;;;6.50;2.50;;;;;;100982.07;;;;106458;1299;66101;-34
2022/01/15 00:30:31;;;;;;;5.70;2.10;;;;;;100981.63;;;;106483;1299;62998;-35
2022/01/15 00:32:59;;;;;;;7.60;2.40;;;;;;100980.60;;;;106500;1299;62620;-34
2022/01/15 00:35:27;;;;;;;5.60;2.10;;;;;;100979.08;;;;106391;1300;62620;-35
2022/01/15 00:37:55;;;;;;;6.10;2.10;;;;;;100983.63;;;;106345;1301;62559;-49
2022/01/15 00:40:22;;;;;;;7.00;2.10;;;;;;100983.66;;;;106327;1299;65987;-46
2022/01/15 00:42:50;;;;;;;5.30;2.10;;;;;;100973.65;;;;106426;1299;62659;-46
2022/01/15 00:45:21;;;;;;;6.60;2.20;;;;;;100973.15;;;;106413;1299;62647;-44
2022/01/15 00:47:52;;;;;;;5.00;1.90;;;;;;100971.46;;;;106449;1299;62591;-34
2022/01/15 00:50:20;;;;;;;6.10;2.20;;;;;;100975.38;;;;106443;1299;62637;-34
2022/01/15 00:52:48;;;;;;;6.00;2.60;;;;;;100982.19;;;;106452;1299;64763;-48
2022/01/15 00:55:17;;;;;;;6.80;2.30;;;;;;100968.15;;;;106463;1298;62694;-45
2022/01/15 00:57:44;;;;;;;5.70;2.10;;;;;;100978.58;;;;106433;1299;62689;-48
2022/01/15 01:00:20;;;;;;;6.20;2.20;;;;;;100978.31;;;;106426;1299;62499;-44
2022/01/15 01:02:48;;;;;;;5.40;2.20;;;;;;100970.18;;;;106221;1299;331326;-44
2022/01/15 01:05:16;;;;;;;6.50;2.40;;;;;;100980.52;;;;106445;1299;65280;-46
2022/01/15 01:07:44;;;;;;;5.10;1.80;;;;;;100974.53;;;;106398;1299;62599;-34
2022/01/15 01:23:34;;;;;;;6.10;2.20;;;;;;100989.73;;;;106434;1299;63036;-34
2022/01/15 01:31:55;;;;;;;6.10;2.30;;;;;;100987.45;;;;106508;1297;67382;-34
2022/01/15 01:34:25;;;;;;;5.30;2.10;;;;;;100999.45;;;;106499;1300;62572;-34
2022/01/15 01:39:39;;;;;;;4.70;1.60;;;;;;100994.17;;;;106418;1299;62601;-44
2022/01/15 01:44:40;;;;;;;4.80;1.80;;;;;;100992.37;;;;106525;1299;65978;-45
2022/01/15 01:47:43;;;;;;;6.10;2.10;;;;;;100993.02;;;;106528;1298;62612;-47
2022/01/15 01:50:03;;;;;;;5.60;2.00;;;;;;100993.19;;;;106457;1299;62531;-45
2022/01/15 01:52:30;;;;;;;6.90;2.40;;;;;;100994.57;;;;106496;1298;62672;-36
2022/01/15 01:54:58;;;;;;;6.50;2.30;;;;;;100991.73;;;;106557;1297;62519;-35
2022/01/15 01:57:27;;;;;;;5.80;2.00;;;;;;100993.11;;;;106536;1300;64757;-35
2022/01/15 01:59:54;;;;;;;6.20;1.90;;;;;;101000.98;;;;106514;1298;62633;-35
2022/01/15 02:02:25;;;;;;;5.60;2.20;;;;;;100998.38;;;;106513;1298;62563;-35
2022/01/15 02:04:59;;;;;;;4.60;1.80;;;;;;100998.36;;;;106493;1298;62554;-35
2022/01/15 02:07:27;;;;;;;5.60;2.10;;;;;;101004.36;;;;106442;1299;62645;-34
2022/01/15 02:09:55;;;;;;;5.20;1.90;;;;;;100998.19;;;;106443;1299;64970;-34
2022/01/15 02:12:22;;;;;;;5.90;1.90;;;;;;101002.41;;;;106415;1299;62958;-45
2022/01/15 02:14:50;;;;;;;6.10;1.90;;;;;;100995.80;;;;106429;1299;62556;-48
2022/01/15 02:17:19;;;;;;;5.60;2.50;;;;;;100997.15;;;;106417;1299;62628;-48
2022/01/15 02:25:17;;;;;;;6.00;2.00;;;;;;100999.20;;;;106433;1299;62691;-35
2022/01/15 02:27:45;;;;;;;4.70;1.80;;;;;;100989.06;;;;106414;1299;62676;-34
2022/01/15 02:30:13;;;;;;;5.90;1.90;;;;;;100980.37;;;;106426;1298;62639;-34
2022/01/15 02:32:40;;;;;;;4.70;2.10;;;;;;100980.61;;;;106435;1299;62540;-34
2022/01/15 02:35:11;;;;;;;5.80;2.20;;;;;;100996.30;;;;106451;1298;66550;-34
2022/01/15 02:37:39;;;;;;;5.40;2.00;;;;;;100996.80;;;;106427;1299;62743;-45
2022/01/15 02:40:10;;;;;;;4.90;2.00;;;;;;100999.57;;;;106428;1299;62607;-45
2022/01/15 02:42:37;;;;;;;6.10;1.80;;;;;;101002.76;;;;106432;1299;62928;-35
2022/01/15 02:45:08;;;;;;;6.00;2.10;;;;;;101003.59;;;;106476;1299;62644;-35
2022/01/15 02:50:24;;;;;;;5.50;2.00;;;;;;100997.92;;;;106492;1298;62626;-45
2022/01/15 02:52:51;;;;;;;6.10;2.20;;;;;;101001.57;;;;106499;1299;62607;-49
2022/01/15 02:55:18;;;;;;;4.40;1.90;;;;;;100999.27;;;;106513;1299;62662;-46
2022/01/15 02:57:45;;;;;;;5.70;2.30;;;;;;101001.33;;;;106537;1298;62511;-44
2022/01/15 03:00:13;;;;;;;5.90;1.70;;;;;;101000.36;;;;106524;1300;65233;-44
2022/01/15 03:02:43;;;;;;;6.80;2.10;;;;;;100996.52;;;;106503;1298;62681;-45
2022/01/15 03:05:13;;;;;;;7.00;2.10;;;;;;100995.28;;;;106493;1298;62631;-44
2022/01/15 03:07:40;;;;;;;5.40;1.90;;;;;;100997.44;;;;106405;1299;62701;-48
2022/01/15 03:10:08;;;;;;;5.10;2.00;;;;;;101000.56;;;;106543;1298;62535;-49
2022/01/15 03:12:36;;;;;;;5.00;1.70;;;;;;101004.44;;;;106523;1299;64981;-34
2022/01/15 03:15:08;;;;;;;5.10;2.00;;;;;;101000.01;;;;106471;1300;62650;-35
2022/01/15 03:17:35;;;;;;;5.40;1.90;;;;;;101000.73;;;;106486;1298;62688;-34
2022/01/15 03:20:05;;;;;;;5.30;1.90;;;;;;101000.05;;;;106506;1298;62926;-34
2022/01/15 03:22:32;;;;;;;5.50;2.00;;;;;;101002.70;;;;106550;1298;62588;-35
2022/01/15 03:24:59;;;;;;;5.60;1.80;;;;;;101005.07;;;;106519;1298;66279;-34
2022/01/15 03:27:27;;;;;;;6.10;1.70;;;;;;101004.45;;;;106512;1299;62663;-46
2022/01/15 03:29:54;;;;;;;5.50;1.80;;;;;;101000.14;;;;106512;1298;62573;-45
2022/01/15 03:32:21;;;;;;;5.40;1.90;;;;;;100999.89;;;;106511;1299;62628;-46
2022/01/15 03:34:51;;;;;;;4.50;1.70;;;;;;101001.64;;;;106536;1299;62603;-47
2022/01/15 03:37:21;;;;;;;5.90;1.90;;;;;;101002.69;;;;106500;1298;65299;-34
2022/01/15 03:39:48;;;;;;;4.80;1.80;;;;;;101005.25;;;;106498;1300;62666;-34
2022/01/15 03:42:18;;;;;;;6.00;1.90;;;;;;100998.89;;;;106519;1298;62535;-34
2022/01/15 03:44:49;;;;;;;5.20;1.70;;;;;;100999.00;;;;106513;1299;62586;-34
2022/01/15 03:47:17;;;;;;;4.10;1.70;;;;;;101005.29;;;;106541;1299;62556;-46
2022/01/15 03:49:44;;;;;;;4.80;1.80;;;;;;101005.75;;;;106428;1299;66579;-46
2022/01/15 03:52:14;;;;;;;4.90;1.90;;;;;;101002.27;;;;106529;1299;62958;-48
2022/01/15 03:54:41;;;;;;;4.90;1.80;;;;;;101001.94;;;;106518;1300;62682;-45
2022/01/15 03:57:08;;;;;;;5.10;1.70;;;;;;101000.44;;;;106502;1298;62560;-45
2022/01/15 03:59:36;;;;;;;5.80;1.80;;;;;;101006.04;;;;106519;1299;62598;-44
2022/01/15 04:02:03;;;;;;;5.60;2.10;;;;;;101024.02;;;;106527;1298;66542;-44
2022/01/15 04:04:31;;;;;;;5.20;1.90;;;;;;101022.17;;;;106479;1299;62625;-45
2022/01/15 04:06:58;;;;;;;4.90;1.70;;;;;;101016.30;;;;106490;1299;62677;-34
2022/01/15 04:09:25;;;;;;;5.40;2.00;;;;;;101020.34;;;;106481;1298;62506;-34
2022/01/15 04:11:52;;;;;;;5.50;2.20;;;;;;101024.98;;;;106526;1299;62617;-35
2022/01/15 04:14:22;;;;;;;6.00;2.10;;;;;;101020.59;;;;106517;1298;67440;-34
2022/01/15 04:16:49;;;;;;;5.50;2.10;;;;;;101019.39;;;;106485;1298;62637;-35
2022/01/15 04:19:16;;;;;;;5.00;1.90;;;;;;101024.05;;;;106495;1297;62660;-35
2022/01/15 04:21:44;;;;;;;4.80;1.60;;;;;;101027.91;;;;106480;1298;62544;-44
2022/01/15 04:24:11;;;;;;;6.00;2.10;;;;;;101034.27;;;;106516;1298;62467;-44
2022/01/15 04:26:38;;;;;;;5.70;1.70;;;;;;101036.15;;;;106525;1298;66126;-45
2022/01/15 04:29:06;;;;;;;6.00;2.20;;;;;;101038.11;;;;106488;1299;62619;-45
2022/01/15 04:31:46;;;;;;;3.90;1.60;;;;;;101044.05;;;;106519;1299;62498;-44
2022/01/15 04:34:18;;;;;;;5.40;1.90;;;;;;101050.40;;;;106492;1299;62491;-44
2022/01/15 04:36:46;;;;;;;5.80;1.90;;;;;;101047.55;;;;106523;1298;62558;-35
2022/01/15 04:39:14;;;;;;;5.70;2.20;;;;;;101051.59;;;;106439;1298;65143;-34
2022/01/15 04:41:41;;;;;;;5.30;2.00;;;;;;101051.77;;;;106474;1298;62678;-45
2022/01/15 04:44:08;;;;;;;4.80;1.90;;;;;;101056.59;;;;106489;1299;62581;-44
2022/01/15 04:46:37;;;;;;;5.70;2.50;;;;;;101058.35;;;;106501;1298;62634;-44
2022/01/15 04:49:05;;;;;;;5.50;2.00;;;;;;101050.20;;;;106510;1298;62699;-44
2022/01/15 04:51:34;;;;;;;5.20;2.00;;;;;;101047.52;;;;106501;1298;65943;-45
2022/01/15 04:54:02;;;;;;;4.70;1.90;;;;;;101050.39;;;;106430;1299;62511;-47
2022/01/15 04:56:32;;;;;;;5.20;2.30;;;;;;101051.00;;;;106494;1298;62593;-46
2022/01/15 04:58:59;;;;;;;5.00;2.20;;;;;;101061.98;;;;106421;1299;62552;-47
2022/01/15 05:01:28;;;;;;;5.20;2.00;;;;;;101065.26;;;;106503;1299;62540;-40
2022/01/15 05:03:55;;;;;;;5.60;1.70;;;;;;101067.04;;;;106497;1298;66180;-44
2022/01/15 05:06:22;;;;;;;5.80;2.00;;;;;;101070.52;;;;106480;1298;63066;-44
2022/01/15 05:09:00;;;;;;;5.10;2.00;;;;;;101072.99;;;;106418;1298;62599;-44
2022/01/15 05:11:32;;;;;;;5.00;2.20;;;;;;101077.09;;;;106500;1298;62571;-44
2022/01/15 05:13:59;;;;;;;5.50;1.90;;;;;;101079.80;;;;106454;1299;62562;-44
2022/01/15 05:16:26;;;;;;;4.10;1.80;;;;;;101091.20;;;;106499;1299;66220;-38
2022/01/15 05:18:53;;;;;;;5.00;2.00;;;;;;101094.49;;;;106485;1298;62654;-34
2022/01/15 05:21:25;;;;;;;6.90;2.30;;;;;;101097.35;;;;106492;1299;62590;-34
2022/01/15 05:23:53;;;;;;;5.40;1.90;;;;;;101094.02;;;;106500;1298;62668;-47
2022/01/15 05:26:20;;;;;;;5.90;2.10;;;;;;101101.85;;;;106481;1299;62760;-44
2022/01/15 05:28:47;;;;;;;4.90;1.80;;;;;;101103.33;;;;106517;1298;64981;-44
2022/01/15 05:31:14;;;;;;;5.60;2.10;;;;;;101104.24;;;;106507;1298;62683;-44
2022/01/15 05:33:41;;;;;;;5.70;2.00;;;;;;101106.33;;;;106473;1299;62548;-34
2022/01/15 05:36:12;;;;;;;5.90;2.50;;;;;;101105.02;;;;106488;1299;62688;-34
2022/01/15 05:38:39;;;;;;;5.40;2.00;;;;;;101107.76;;;;106546;1299;62498;-46
2022/01/15 05:41:06;;;;;;;6.60;2.10;;;;;;101104.45;;;;106492;1299;64777;-43
2022/01/15 05:43:33;;;;;;;5.10;2.00;;;;;;101104.21;;;;106477;1298;62653;-45
2022/01/15 05:46:00;;;;;;;5.00;2.00;;;;;;101106.80;;;;106487;1299;62755;-44
2022/01/15 05:48:27;;;;;;;4.90;2.10;;;;;;101110.35;;;;106504;1298;62617;-45
2022/01/15 05:50:55;;;;;;;5.00;1.80;;;;;;101116.67;;;;106493;1298;62676;-44
2022/01/15 05:53:22;;;;;;;5.90;2.30;;;;;;101116.88;;;;106495;1298;66661;-35
2022/01/15 05:55:49;;;;;;;5.30;2.20;;;;;;101120.77;;;;106506;1299;62823;-35
2022/01/15 05:58:19;;;;;;;5.10;1.90;;;;;;101122.58;;;;106487;1298;62694;-35
2022/01/15 06:00:46;;;;;;;5.20;2.10;;;;;;101121.20;;;;106452;1299;62605;-34
2022/01/15 06:03:13;;;;;;;6.00;2.00;;;;;;101112.39;;;;106505;1299;62556;-35
2022/01/15 06:05:40;;;;;;;4.90;2.00;;;;;;101112.08;;;;106503;1298;66165;-36
2022/01/15 06:08:07;;;;;;;5.00;1.90;;;;;;101113.56;;;;106508;1299;62712;-44
2022/01/15 06:10:36;;;;;;;5.40;2.00;;;;;;101117.24;;;;106499;1298;62859;-43
2022/01/15 06:13:04;;;;;;;4.80;2.00;;;;;;101115.08;;;;106478;1299;62642;-44
2022/01/15 06:15:31;;;;;;;5.10;1.90;;;;;;101117.08;;;;106518;1299;62538;-54
2022/01/15 06:17:58;;;;;;;6.30;2.50;;;;;;101122.84;;;;106498;1298;66194;-34
2022/01/15 06:20:25;;;;;;;5.30;2.00;;;;;;101120.48;;;;106420;1299;62694;-35
2022/01/15 06:22:52;;;;;;;5.80;2.20;;;;;;101118.61;;;;106485;1298;62569;-35
2022/01/15 06:25:20;;;;;;;6.40;2.40;;;;;;101122.84;;;;106475;1299;62599;-34
2022/01/15 06:27:47;;;;;;;5.70;2.40;;;;;;101125.84;;;;106450;1299;62661;-44
2022/01/15 06:30:14;;;;;;;5.90;2.10;;;;;;101126.81;;;;106498;1299;65303;-44
2022/01/15 06:32:41;;;;;;;6.30;2.30;;;;;;101131.18;;;;106484;1298;62646;-35
2022/01/15 06:35:13;;;;;;;5.80;2.20;;;;;;101134.70;;;;106471;1299;62640;-36
2022/01/15 06:37:40;;;;;;;5.20;2.10;;;;;;101135.14;;;;106470;1299;62607;-45
2022/01/15 06:40:11;;;;;;;5.50;2.20;;;;;;101134.79;;;;106503;1298;62619;-36
2022/01/15 06:42:38;;;;;;;6.10;2.30;;;;;;101138.71;;;;106498;1300;66587;-34
2022/01/15 06:45:06;;;;;;;5.10;2.10;;;;;;101136.33;;;;106475;1299;62701;-35
2022/01/15 06:47:34;;;;;;;4.90;1.80;;;;;;101141.48;;;;106424;1299;62620;-44
2022/01/15 06:50:05;;;;;;;5.60;2.10;;;;;;101141.34;;;;106459;1298;62692;-44
2022/01/15 06:52:34;;;;;;;5.60;2.10;;;;;;101140.61;;;;106490;1299;62486;-44
2022/01/15 06:55:07;;;;;;;5.50;2.10;;;;;;101144.09;;;;106498;1298;66171;-44
2022/01/15 06:57:35;;;;;;;5.30;2.40;;;;;;101145.66;;;;106498;1298;62633;-44
2022/01/15 07:00:05;;;;;;;5.50;2.20;;;;;;101144.13;;;;106412;1299;62581;-56
2022/01/15 07:02:32;;;;;;;5.00;2.00;;;;;;101144.35;;;;106472;1300;62871;-44
2022/01/15 07:05:00;;;;;;;5.90;2.00;;;;;;101142.48;;;;106493;1298;62533;-42
2022/01/15 07:07:30;;;;;;;5.40;2.10;;;;;;101149.71;;;;106371;1300;66273;-44
2022/01/15 07:09:58;;;;;;;4.70;1.80;;;;;;101152.51;;;;106432;1299;62674;-48
2022/01/15 07:12:25;;;;;;;5.00;2.20;;;;;;101158.26;;;;106431;1299;62550;-43
2022/01/15 07:14:52;;;;;;;6.00;2.60;;;;;;101164.71;;;;106467;1299;62659;-44
2022/01/15 07:17:19;;;;;;;4.90;2.10;;;;;;101167.20;;;;106502;1299;62502;-34
2022/01/15 07:19:51;;;;;;;6.60;2.60;;;;;;101164.58;;;;106462;1300;64703;-35
2022/01/15 07:22:18;;;;;;;6.70;2.50;;;;;;101167.50;;;;106494;1299;62634;-34
2022/01/15 07:24:45;;;;;;;6.10;2.40;;;;;;101168.46;;;;106498;1299;62607;-34
2022/01/15 07:27:12;;;;;;;5.40;2.20;;;;;;101170.95;;;;106490;1300;62668;-44
2022/01/15 07:29:39;;;;;;;5.70;2.20;;;;;;101170.65;;;;106495;1299;62554;-45
2022/01/15 07:32:07;;;;;;;5.20;2.60;;;;;;101175.29;;;;106511;1299;66498;-45
2022/01/15 07:34:34;;;;;;;4.60;2.20;;;;;;101171.23;;;;106495;1300;62601;-44
2022/01/15 07:37:02;;;;;;;5.90;2.40;;;;;;101176.20;;;;106485;1299;62615;-44
2022/01/15 07:39:29;;;;;;;6.40;2.30;;;;;;101180.95;;;;106485;1299;62674;-44
2022/01/15 07:41:56;;;;;;;5.70;2.10;;;;;;101182.20;;;;106508;1300;62542;-44
2022/01/15 07:44:23;;;;;;;5.80;2.00;;;;;;101187.14;;;;106505;1297;66490;-44
2022/01/15 07:46:50;;;;;;;5.90;2.30;;;;;;101184.75;;;;106464;1300;62982;-47
2022/01/15 07:49:17;;;;;;;5.90;2.40;;;;;;101189.11;;;;106425;1299;62583;-60
2022/01/15 07:51:44;;;;;;;6.20;2.20;;;;;;101190.27;;;;106451;1300;62732;-46
2022/01/15 07:54:12;;;;;;;6.10;2.40;;;;;;101194.56;;;;106485;1298;62566;-51
2022/01/15 07:56:39;;;;;;;6.00;2.30;;;;;;101194.33;;;;106491;1298;66259;-44
2022/01/15 07:59:06;;;;;;;5.70;2.50;;;;;;101203.20;;;;106467;1300;62663;-44
2022/01/15 08:01:33;;;;;;;6.50;2.20;;;;;;101207.73;;;;106490;1300;62521;-35
2022/01/15 08:04:03;;;;;;;5.80;2.10;;;;;;101207.77;;;;106450;1299;62679;-34
2022/01/15 08:06:33;;;;;;;6.30;2.30;;;;;;101213.80;;;;106500;1298;62651;-45
2022/01/15 08:09:00;;;;;;;5.90;2.30;;;;;;101209.88;;;;106492;1299;65982;-48
2022/01/15 08:11:27;;;;;;;5.00;1.90;;;;;;101214.54;;;;106394;1300;62703;-46
2022/01/15 08:13:55;;;;;;;5.50;2.30;;;;;;101212.69;;;;106463;1299;62723;-45
2022/01/15 08:16:22;;;;;;;5.70;2.30;;;;;;101210.10;;;;106472;1299;62725;-47
2022/01/15 08:18:52;;;;;;;6.70;2.40;;;;;;101205.17;;;;106449;1298;62964;-45
2022/01/15 08:21:22;;;;;;;5.90;2.50;;;;;;101212.27;;;;106480;1300;65033;-48
2022/01/15 08:23:49;;;;;;;5.90;2.70;;;;;;101201.02;;;;106466;1299;62655;-34
2022/01/15 08:26:19;;;;;;;6.70;2.80;;;;;;101210.51;;;;106495;1299;62723;-34
2022/01/15 08:28:49;;;;;;;5.80;2.30;;;;;;101217.41;;;;106489;1300;62648;-44
2022/01/15 08:31:16;;;;;;;7.50;2.80;;;;;;101220.73;;;;106508;1299;62515;-44
2022/01/15 08:33:43;;;;;;;5.80;2.60;;;;;;101222.92;;;;106503;1300;64738;-35
2022/01/15 08:36:13;;;;;;;5.50;2.50;;;;;;101222.92;;;;106489;1298;62639;-34
2022/01/15 08:38:40;;;;;;;6.20;2.70;;;;;;101223.73;;;;106486;1298;62507;-45
2022/01/15 08:41:07;;;;;;;5.90;2.50;;;;;;101221.80;;;;106479;1300;62520;-45
2022/01/15 08:43:35;;;;;;;5.70;2.30;;;;;;101222.80;;;;106492;1300;62562;-52
2022/01/15 08:46:02;;;;;;;6.40;2.30;;;;;;101221.27;;;;106454;1299;66173;-47
2022/01/15 08:48:29;;;;;;;6.60;2.60;;;;;;101216.82;;;;106482;1299;62713;-45
2022/01/15 08:50:57;;;;;;;6.30;2.60;;;;;;101217.61;;;;106448;1299;62716;-44
2022/01/15 08:53:24;;;;;;;6.20;2.70;;;;;;101218.13;;;;106477;1300;62786;-44
2022/01/15 08:55:53;;;;;;;5.20;2.30;;;;;;101215.87;;;;106485;1298;62506;-48
2022/01/15 08:58:20;;;;;;;5.50;2.50;;;;;;101218.59;;;;106481;1298;66196;-35
2022/01/15 09:00:48;;;;;;;6.00;2.60;;;;;;101221.36;;;;106441;1299;62755;-39
2022/01/15 09:03:15;;;;;;;5.50;2.40;;;;;;101222.91;;;;106173;1298;334802;-46
2022/01/15 09:05:42;;;;;;;6.00;2.70;;;;;;101220.45;;;;106469;1298;62623;-47
2022/01/15 09:08:10;;;;;;;5.70;2.60;;;;;;101224.98;;;;106476;1299;62523;-34
2022/01/15 09:10:41;;;;;;;6.20;2.60;;;;;;101221.09;;;;106478;1298;66386;-34
2022/01/15 09:13:12;;;;;;;5.30;2.30;;;;;;101223.57;;;;106463;1298;62556;-44
2022/01/15 09:15:39;;;;;;;6.50;2.40;;;;;;101228.57;;;;106472;1299;62952;-44
2022/01/15 09:18:06;;;;;;;5.60;2.40;;;;;;101229.70;;;;106453;1299;62640;-34
2022/01/15 09:20:33;;;;;;;6.10;2.60;;;;;;101235.79;;;;106519;1298;62519;-35
2022/01/15 09:23:01;;;;;;;5.60;2.70;;;;;;101241.61;;;;106439;1298;65022;-35
2022/01/15 09:25:28;;;;;;;5.30;2.50;;;;;;101244.16;;;;106442;1300;62755;-35
2022/01/15 09:30:41;;;;;;;6.30;2.40;;;;;;101243.50;;;;106451;1300;62467;-35
2022/01/15 09:33:12;;;;;;;5.60;2.50;;;;;;101249.79;;;;106518;1300;62538;-35
2022/01/15 09:35:39;;;;;;;6.20;3.00;;;;;;101246.45;;;;106473;1299;65956;-35
2022/01/15 09:38:10;;;;;;;6.60;2.80;;;;;;101242.52;;;;106442;1300;62743;-38
2022/01/15 09:40:40;;;;;;;6.50;3.10;;;;;;101247.97;;;;106472;1298;62521;-36
2022/01/15 09:43:08;;;;;;;6.30;2.50;;;;;;101251.77;;;;106472;1299;62522;-34
2022/01/15 09:45:36;;;;;;;5.60;2.80;;;;;;101249.54;;;;106475;1298;62548;-34
2022/01/15 09:48:06;;;;;;;5.90;2.40;;;;;;101242.55;;;;106470;1299;64927;-34
2022/01/15 09:50:37;;;;;;;6.50;2.60;;;;;;101236.63;;;;106438;1300;63157;-35
2022/01/15 09:53:05;;;;;;;5.80;2.70;;;;;;101240.51;;;;106477;1298;62629;-35
2022/01/15 09:55:32;;;;;;;7.50;2.80;;;;;;101238.02;;;;106451;1300;62609;-35
2022/01/15 09:57:59;;;;;;;6.60;2.80;;;;;;101240.66;;;;106449;1299;62613;-35
2022/01/15 10:00:27;;;;;;;8.30;2.90;;;;;;101246.02;;;;106465;1300;64712;-35
2022/01/15 10:02:55;;;;;;;5.30;2.20;;;;;;101250.14;;;;106433;1300;62771;-35
2022/01/15 10:05:25;;;;;;;6.20;3.00;;;;;;101249.73;;;;106455;1299;62621;-34
2022/01/15 10:08:06;;;;;;;6.40;2.30;;;;;;101247.11;;;;106438;1299;62641;-34
2022/01/15 10:10:34;;;;;;;4.60;2.20;;;;;;101248.58;;;;106471;1299;62564;-34
2022/01/15 10:13:17;;;;;;;7.10;2.70;;;;;;101250.41;;;;106419;1299;64667;-43
2022/01/15 10:16:10;;;;;;;6.70;2.70;;;;;;101256.84;;;;106461;1299;62611;-39
2022/01/15 10:18:44;;;;;;;6.90;2.80;;;;;;101256.64;;;;106427;1299;62705;-43
2022/01/15 10:21:17;;;;;;;6.00;2.80;;;;;;101253.43;;;;106460;1300;62999;-49
2022/01/15 10:23:56;;;;;;;7.10;2.60;;;;;;101243.61;;;;106444;1299;62529;-50
2022/01/15 10:26:26;;;;;;;6.00;2.50;;;;;;101242.05;;;;106479;1299;66917;-37
2022/01/15 10:29:07;;;;;;;6.30;2.40;;;;;;101245.04;;;;106450;1299;62693;-37
2022/01/15 10:31:44;;;;;;;8.70;2.70;;;;;;101245.34;;;;106476;1300;62669;-32
2022/01/15 10:34:24;;;;;;;5.00;2.40;;;;;;101246.19;;;;106476;1300;62608;-32
2022/01/15 10:36:52;;;;;;;6.60;2.70;;;;;;101254.20;;;;106502;1299;62551;-37
2022/01/15 10:39:21;;;;;;;6.70;3.00;;;;;;101261.04;;;;106444;1299;65282;-36
2022/01/15 10:41:48;;;;;;;5.40;2.50;;;;;;101272.64;;;;106459;1299;62624;-31
2022/01/15 10:44:37;;;;;;;6.10;2.80;;;;;;101276.55;;;;106438;1299;63003;-37
2022/01/15 10:47:16;;;;;;;6.70;2.70;;;;;;101280.91;;;;106469;1299;62545;-36
2022/01/15 10:49:44;;;;;;;5.90;2.80;;;;;;101284.55;;;;106480;1299;62681;-38
2022/01/15 10:52:21;;;;;;;6.30;2.40;;;;;;101290.88;;;;106524;1300;65968;-44
2022/01/15 10:55:08;;;;;;;6.20;2.60;;;;;;101295.02;;;;106468;1298;62643;-44
2022/01/15 10:57:41;;;;;;;5.30;2.50;;;;;;101292.94;;;;106437;1299;62622;-35
2022/01/15 11:00:12;;;;;;;6.70;2.50;;;;;;101291.95;;;;106471;1299;62505;-36
2022/01/15 11:02:43;;;;;;;6.10;2.10;;;;;;101291.63;;;;106480;1300;62565;-31
2022/01/15 11:05:42;;;;;;;5.20;2.50;;;;;;101288.18;;;;106501;1300;66071;-36
2022/01/15 11:08:19;;;;;;;6.70;2.60;;;;;;101295.59;;;;106450;1299;62574;-35
2022/01/15 11:11:03;;;;;;;5.70;2.40;;;;;;101299.52;;;;106472;1298;62571;-36
2022/01/15 11:13:39;;;;;;;6.90;2.60;;;;;;101302.30;;;;106464;1298;62609;-44
2022/01/15 11:16:17;;;;;;;7.60;2.60;;;;;;101316.10;;;;106497;1299;62524;-44
2022/01/15 11:18:49;;;;;;;5.70;2.50;;;;;;101316.83;;;;106478;1300;67744;-38
2022/01/15 11:21:19;;;;;;;6.30;2.70;;;;;;101318.27;;;;106467;1298;62617;-44
2022/01/15 11:23:48;;;;;;;6.10;2.20;;;;;;101317.09;;;;106439;1299;62624;-44
2022/01/15 11:26:26;;;;;;;5.10;2.00;;;;;;101314.91;;;;106463;1298;62481;-44
2022/01/15 11:28:55;;;;;;;5.70;2.50;;;;;;101315.19;;;;106500;1300;62598;-44
2022/01/15 11:31:34;;;;;;;5.60;2.40;;;;;;101310.89;;;;106488;1300;66229;-46
2022/01/15 11:34:05;;;;;;;5.70;2.50;;;;;;101318.08;;;;106470;1299;62635;-44
2022/01/15 11:36:39;;;;;;;5.20;2.10;;;;;;101319.15;;;;106389;1298;62757;-44
2022/01/15 11:39:11;;;;;;;6.40;2.50;;;;;;101328.42;;;;106472;1300;62562;-44
2022/01/15 11:41:52;;;;;;;4.90;2.30;;;;;;101330.73;;;;106449;1299;62578;-35
2022/01/15 11:44:38;;;;;;;5.30;2.10;;;;;;101329.27;;;;106470;1300;66101;-35
2022/01/15 11:47:22;;;;;;;5.50;2.30;;;;;;101324.40;;;;106450;1299;62644;-34
2022/01/15 11:49:51;;;;;;;6.30;2.30;;;;;;101324.41;;;;106455;1300;62902;-37
2022/01/15 11:52:22;;;;;;;5.50;2.50;;;;;;101319.31;;;;106478;1298;62707;-44
2022/01/15 11:54:59;;;;;;;5.50;2.70;;;;;;101314.95;;;;106464;1299;62617;-44
2022/01/15 11:57:44;;;;;;;7.80;2.70;;;;;;101317.11;;;;106494;1298;66496;-44
2022/01/15 12:00:28;;;;;;;5.70;2.80;;;;;;101312.29;;;;106476;1298;62811;-44
2022/01/15 12:03:14;;;;;;;5.00;2.20;;;;;;101313.36;;;;106483;1299;62601;-46
2022/01/15 12:05:43;;;;;;;5.30;2.20;;;;;;101318.73;;;;106461;1298;62711;-44
2022/01/15 12:08:13;;;;;;;6.30;2.40;;;;;;101319.96;;;;106499;1300;62523;-44
2022/01/15 12:10:43;;;;;;;5.60;2.30;;;;;;101317.55;;;;106465;1298;66001;-44
2022/01/15 12:13:12;;;;;;;6.00;2.50;;;;;;101320.65;;;;106452;1299;62634;-44
2022/01/15 12:15:39;;;;;;;5.90;2.70;;;;;;101320.86;;;;106460;1298;62665;-35
2022/01/15 12:18:16;;;;;;;5.60;2.40;;;;;;101318.39;;;;106441;1299;62630;-34
2022/01/15 12:20:44;;;;;;;5.50;2.40;;;;;;101319.18;;;;106497;1300;62647;-34
2022/01/15 12:23:34;;;;;;;5.30;2.80;;;;;;101325.58;;;;106501;1298;66240;-45
2022/01/15 12:26:08;;;;;;;7.00;2.70;;;;;;101327.42;;;;106448;1300;63763;-44
2022/01/15 12:28:36;;;;;;;5.10;2.30;;;;;;101324.18;;;;106378;1299;62996;-37
2022/01/15 12:31:03;;;;;;;5.70;2.40;;;;;;101320.84;;;;106469;1298;62668;-41
2022/01/15 12:33:30;;;;;;;6.60;3.10;;;;;;101322.21;;;;106520;1299;62559;-44
2022/01/15 12:35:58;;;;;;;5.90;2.40;;;;;;101322.64;;;;106502;1299;66538;-44
2022/01/15 12:38:28;;;;;;;7.50;3.10;;;;;;101321.02;;;;106497;1300;62724;-43
2022/01/15 12:41:02;;;;;;;7.50;2.60;;;;;;101328.01;;;;106404;1299;62606;-35
2022/01/15 12:43:41;;;;;;;6.00;2.70;;;;;;101330.73;;;;106489;1300;62644;-44
2022/01/15 12:46:12;;;;;;;6.50;2.80;;;;;;101326.48;;;;106484;1298;62552;-44
2022/01/15 12:48:44;;;;;;;5.70;2.30;;;;;;101325.70;;;;106489;1298;66732;-34
2022/01/15 12:51:21;;;;;;;6.10;2.80;;;;;;101328.02;;;;106493;1299;62536;-37
2022/01/15 12:53:57;;;;;;;7.50;3.00;;;;;;101327.96;;;;106485;1298;62567;-34
2022/01/15 12:56:27;;;;;;;7.40;2.90;;;;;;101332.80;;;;106439;1299;62677;-36
2022/01/15 12:58:55;;;;;;;7.50;2.70;;;;;;101336.38;;;;106406;1299;62575;-44
2022/01/15 13:01:28;;;;;;;5.60;2.60;;;;;;101336.41;;;;106465;1299;65714;-44
2022/01/15 13:03:55;;;;;;;7.50;3.00;;;;;;101331.77;;;;106418;1299;62567;-34
2022/01/15 13:06:26;;;;;;;8.80;2.60;;;;;;101333.98;;;;106470;1300;62568;-35
2022/01/15 13:08:56;;;;;;;5.30;2.80;;;;;;101333.68;;;;106450;1299;62689;-35
2022/01/15 13:11:29;;;;;;;6.50;2.50;;;;;;101334.40;;;;106512;1299;62518;-37
2022/01/15 13:14:04;;;;;;;7.00;2.70;;;;;;101336.17;;;;106236;1299;66144;-35
2022/01/15 13:16:32;;;;;;;6.70;2.40;;;;;;101337.58;;;;106476;1299;63117;-43
2022/01/15 13:19:04;;;;;;;7.00;2.60;;;;;;101338.30;;;;106490;1299;62740;-44
2022/01/15 13:21:34;;;;;;;7.30;3.00;;;;;;101342.16;;;;106502;1298;62515;-44
2022/01/15 13:24:08;;;;;;;6.50;2.50;;;;;;101340.31;;;;106527;1298;62989;-44
2022/01/15 13:26:42;;;;;;;5.70;2.60;;;;;;101338.01;;;;106465;1299;66004;-44
2022/01/15 13:29:16;;;;;;;6.60;2.50;;;;;;101343.77;;;;106498;1299;62663;-43
2022/01/15 13:31:44;;;;;;;7.40;2.80;;;;;;101346.45;;;;106492;1299;62485;-44
2022/01/15 13:34:26;;;;;;;6.00;2.70;;;;;;101349.63;;;;106424;1299;62609;-44
2022/01/15 13:36:54;;;;;;;6.40;2.80;;;;;;101345.46;;;;106366;1300;63028;-36